Terminal Aerodrome Forecast
Issued by NWS Cleveland, OH

Home | Current Version | Previous Version | Text Only | Print | Product List | Glossary Off
Versions: 1 2 3 4 5 6 7 8 9 10 11 12 13 14 15 16 17 18 19 20

426
FTUS41 KCLE 090700 AAA
TAFMFD
TAF AMD
KMFD 090700Z 0907/1006 28005KT P6SM SCT008 OVC012
     FM090800 28006KT 5SM BR OVC006
     FM091700 27010KT 6SM -SHSN OVC012
     FM092300 28010KT P6SM BKN020=

USA.gov is the U.S. government's official web portal to all federal, state and local government web resources and services.